sensor_id;sensor_type;location;lat;lon;timestamp;P1;durP1;ratioP1;P2;durP2;ratioP2
12059;SDS011;6091;51.432;6.880;2024-01-25T00:00:20;1.30;;;1.08;;
12059;SDS011;6091;51.432;6.880;2024-01-25T00:02:48;1.40;;;1.08;;
12059;SDS011;6091;51.432;6.880;2024-01-25T00:05:15;1.77;;;1.08;;
12059;SDS011;6091;51.432;6.880;2024-01-25T00:07:49;1.45;;;1.05;;
12059;SDS011;6091;51.432;6.880;2024-01-25T00:10:17;1.30;;;0.80;;
12059;SDS011;6091;51.432;6.880;2024-01-25T00:12:45;1.73;;;1.08;;
12059;SDS011;6091;51.432;6.880;2024-01-25T00:15:13;1.95;;;1.20;;
12059;SDS011;6091;51.432;6.880;2024-01-25T00:17:41;1.45;;;1.10;;
12059;SDS011;6091;51.432;6.880;2024-01-25T00:20:09;1.10;;;0.80;;
12059;SDS011;6091;51.432;6.880;2024-01-25T00:22:37;2.17;;;1.20;;
12059;SDS011;6091;51.432;6.880;2024-01-25T00:25:05;1.13;;;0.93;;
12059;SDS011;6091;51.432;6.880;2024-01-25T00:27:34;1.45;;;1.10;;
12059;SDS011;6091;51.432;6.880;2024-01-25T00:30:01;1.30;;;1.10;;
12059;SDS011;6091;51.432;6.880;2024-01-25T00:32:31;1.77;;;1.10;;
12059;SDS011;6091;51.432;6.880;2024-01-25T00:34:58;1.48;;;1.30;;
12059;SDS011;6091;51.432;6.880;2024-01-25T00:37:26;2.13;;;1.35;;
12059;SDS011;6091;51.432;6.880;2024-01-25T00:39:54;1.60;;;1.23;;
12059;SDS011;6091;51.432;6.880;2024-01-25T00:42:22;1.73;;;0.93;;
12059;SDS011;6091;51.432;6.880;2024-01-25T00:44:50;1.17;;;1.08;;
12059;SDS011;6091;51.432;6.880;2024-01-25T00:47:19;2.00;;;1.40;;
12059;SDS011;6091;51.432;6.880;2024-01-25T00:49:47;1.50;;;1.10;;
12059;SDS011;6091;51.432;6.880;2024-01-25T00:52:15;1.27;;;0.95;;
12059;SDS011;6091;51.432;6.880;2024-01-25T00:54:43;1.52;;;1.10;;
12059;SDS011;6091;51.432;6.880;2024-01-25T00:57:10;1.80;;;1.20;;
12059;SDS011;6091;51.432;6.880;2024-01-25T00:59:38;1.40;;;1.15;;
12059;SDS011;6091;51.432;6.880;2024-01-25T01:02:05;1.33;;;1.10;;
12059;SDS011;6091;51.432;6.880;2024-01-25T01:04:39;1.30;;;1.13;;
12059;SDS011;6091;51.432;6.880;2024-01-25T01:07:13;1.75;;;1.00;;
12059;SDS011;6091;51.432;6.880;2024-01-25T01:09:43;1.95;;;1.05;;
12059;SDS011;6091;51.432;6.880;2024-01-25T01:12:10;1.58;;;1.30;;
12059;SDS011;6091;51.432;6.880;2024-01-25T01:14:37;1.52;;;1.00;;
12059;SDS011;6091;51.432;6.880;2024-01-25T01:17:04;1.45;;;1.02;;
12059;SDS011;6091;51.432;6.880;2024-01-25T01:19:32;1.55;;;1.10;;
12059;SDS011;6091;51.432;6.880;2024-01-25T01:21:59;1.88;;;1.30;;
12059;SDS011;6091;51.432;6.880;2024-01-25T01:24:28;2.28;;;1.00;;
12059;SDS011;6091;51.432;6.880;2024-01-25T01:26:55;2.28;;;1.25;;
12059;SDS011;6091;51.432;6.880;2024-01-25T01:29:22;1.10;;;0.90;;
12059;SDS011;6091;51.432;6.880;2024-01-25T01:31:49;2.10;;;1.02;;
12059;SDS011;6091;51.432;6.880;2024-01-25T01:34:17;1.35;;;0.90;;
12059;SDS011;6091;51.432;6.880;2024-01-25T01:36:44;1.50;;;1.10;;
12059;SDS011;6091;51.432;6.880;2024-01-25T01:39:12;1.77;;;1.08;;
12059;SDS011;6091;51.432;6.880;2024-01-25T01:41:39;2.25;;;1.13;;
12059;SDS011;6091;51.432;6.880;2024-01-25T01:44:06;1.02;;;0.85;;
12059;SDS011;6091;51.432;6.880;2024-01-25T01:46:34;1.88;;;1.20;;
12059;SDS011;6091;51.432;6.880;2024-01-25T01:49:06;1.27;;;1.08;;
12059;SDS011;6091;51.432;6.880;2024-01-25T01:51:37;1.30;;;0.90;;
12059;SDS011;6091;51.432;6.880;2024-01-25T01:54:07;1.48;;;0.98;;
12059;SDS011;6091;51.432;6.880;2024-01-25T01:56:35;1.77;;;1.20;;
12059;SDS011;6091;51.432;6.880;2024-01-25T01:59:04;1.10;;;1.00;;
12059;SDS011;6091;51.432;6.880;2024-01-25T02:01:35;1.40;;;1.15;;
12059;SDS011;6091;51.432;6.880;2024-01-25T02:04:02;1.23;;;1.08;;
12059;SDS011;6091;51.432;6.880;2024-01-25T02:06:30;1.83;;;1.30;;
12059;SDS011;6091;51.432;6.880;2024-01-25T02:08:58;1.40;;;1.13;;
12059;SDS011;6091;51.432;6.880;2024-01-25T02:11:26;1.58;;;1.30;;
12059;SDS011;6091;51.432;6.880;2024-01-25T02:13:53;1.10;;;1.00;;
12059;SDS011;6091;51.432;6.880;2024-01-25T02:16:21;1.13;;;0.90;;
12059;SDS011;6091;51.432;6.880;2024-01-25T02:18:49;1.23;;;1.13;;
12059;SDS011;6091;51.432;6.880;2024-01-25T02:21:16;1.17;;;1.05;;
12059;SDS011;6091;51.432;6.880;2024-01-25T02:23:43;1.85;;;1.00;;
12059;SDS011;6091;51.432;6.880;2024-01-25T02:26:11;1.58;;;1.23;;
12059;SDS011;6091;51.432;6.880;2024-01-25T02:28:38;1.20;;;1.10;;
12059;SDS011;6091;51.432;6.880;2024-01-25T02:31:05;1.88;;;1.23;;
12059;SDS011;6091;51.432;6.880;2024-01-25T02:33:32;1.60;;;1.30;;
12059;SDS011;6091;51.432;6.880;2024-01-25T02:36:00;1.13;;;1.00;;
12059;SDS011;6091;51.432;6.880;2024-01-25T02:38:27;1.92;;;1.20;;
12059;SDS011;6091;51.432;6.880;2024-01-25T02:40:54;1.10;;;1.00;;
12059;SDS011;6091;51.432;6.880;2024-01-25T02:43:21;1.67;;;1.30;;
12059;SDS011;6091;51.432;6.880;2024-01-25T02:45:48;1.10;;;0.98;;
12059;SDS011;6091;51.432;6.880;2024-01-25T02:48:17;1.10;;;1.00;;
12059;SDS011;6091;51.432;6.880;2024-01-25T02:50:46;1.30;;;1.10;;
12059;SDS011;6091;51.432;6.880;2024-01-25T02:53:13;1.95;;;1.33;;
12059;SDS011;6091;51.432;6.880;2024-01-25T02:55:40;2.15;;;1.30;;
12059;SDS011;6091;51.432;6.880;2024-01-25T02:58:07;1.27;;;1.13;;
12059;SDS011;6091;51.432;6.880;2024-01-25T03:00:34;1.83;;;1.23;;
12059;SDS011;6091;51.432;6.880;2024-01-25T03:03:02;1.73;;;1.05;;
12059;SDS011;6091;51.432;6.880;2024-01-25T03:05:29;1.45;;;0.98;;
12059;SDS011;6091;51.432;6.880;2024-01-25T03:07:56;1.25;;;1.00;;
12059;SDS011;6091;51.432;6.880;2024-01-25T03:10:24;1.80;;;1.17;;
12059;SDS011;6091;51.432;6.880;2024-01-25T03:12:51;1.20;;;1.10;;
12059;SDS011;6091;51.432;6.880;2024-01-25T03:15:19;1.40;;;1.10;;
12059;SDS011;6091;51.432;6.880;2024-01-25T03:17:46;1.17;;;1.08;;
12059;SDS011;6091;51.432;6.880;2024-01-25T03:20:13;1.75;;;1.30;;
12059;SDS011;6091;51.432;6.880;2024-01-25T03:22:41;1.50;;;1.10;;
12059;SDS011;6091;51.432;6.880;2024-01-25T03:25:08;1.65;;;1.10;;
12059;SDS011;6091;51.432;6.880;2024-01-25T03:27:37;1.73;;;1.30;;
12059;SDS011;6091;51.432;6.880;2024-01-25T03:30:04;1.20;;;1.05;;
12059;SDS011;6091;51.432;6.880;2024-01-25T03:32:33;1.35;;;1.00;;
12059;SDS011;6091;51.432;6.880;2024-01-25T03:35:00;1.35;;;1.00;;
12059;SDS011;6091;51.432;6.880;2024-01-25T03:37:28;1.58;;;1.10;;
12059;SDS011;6091;51.432;6.880;2024-01-25T03:39:55;1.25;;;1.10;;
12059;SDS011;6091;51.432;6.880;2024-01-25T03:42:22;1.20;;;1.08;;
12059;SDS011;6091;51.432;6.880;2024-01-25T03:44:49;2.25;;;1.10;;
12059;SDS011;6091;51.432;6.880;2024-01-25T03:47:16;2.33;;;1.00;;
12059;SDS011;6091;51.432;6.880;2024-01-25T03:49:44;1.50;;;1.10;;
12059;SDS011;6091;51.432;6.880;2024-01-25T03:52:12;1.75;;;1.10;;
12059;SDS011;6091;51.432;6.880;2024-01-25T03:54:39;1.15;;;1.00;;
12059;SDS011;6091;51.432;6.880;2024-01-25T03:57:06;1.20;;;1.10;;
12059;SDS011;6091;51.432;6.880;2024-01-25T03:59:34;1.45;;;1.20;;
12059;SDS011;6091;51.432;6.880;2024-01-25T04:02:01;1.27;;;1.17;;
12059;SDS011;6091;51.432;6.880;2024-01-25T04:04:32;0.85;;;0.77;;
12059;SDS011;6091;51.432;6.880;2024-01-25T04:06:59;1.02;;;0.90;;
12059;SDS011;6091;51.432;6.880;2024-01-25T04:09:27;1.20;;;1.10;;
12059;SDS011;6091;51.432;6.880;2024-01-25T04:11:55;0.80;;;0.80;;
12059;SDS011;6091;51.432;6.880;2024-01-25T04:14:22;1.88;;;1.23;;
12059;SDS011;6091;51.432;6.880;2024-01-25T04:16:51;1.13;;;1.00;;
12059;SDS011;6091;51.432;6.880;2024-01-25T04:19:18;1.85;;;0.98;;
12059;SDS011;6091;51.432;6.880;2024-01-25T04:21:45;1.48;;;1.20;;
12059;SDS011;6091;51.432;6.880;2024-01-25T04:24:12;1.90;;;1.27;;
12059;SDS011;6091;51.432;6.880;2024-01-25T04:26:39;1.13;;;0.90;;
12059;SDS011;6091;51.432;6.880;2024-01-25T04:29:07;2.10;;;1.35;;
12059;SDS011;6091;51.432;6.880;2024-01-25T04:31:34;1.20;;;1.05;;
12059;SDS011;6091;51.432;6.880;2024-01-25T04:34:01;1.50;;;1.00;;
12059;SDS011;6091;51.432;6.880;2024-01-25T04:36:28;1.38;;;1.05;;
12059;SDS011;6091;51.432;6.880;2024-01-25T04:38:57;1.45;;;1.10;;
12059;SDS011;6091;51.432;6.880;2024-01-25T04:41:24;1.38;;;1.00;;
12059;SDS011;6091;51.432;6.880;2024-01-25T04:43:51;1.42;;;1.00;;
12059;SDS011;6091;51.432;6.880;2024-01-25T04:46:18;1.05;;;0.93;;
12059;SDS011;6091;51.432;6.880;2024-01-25T04:48:47;1.50;;;1.15;;
12059;SDS011;6091;51.432;6.880;2024-01-25T04:51:18;1.45;;;1.27;;
12059;SDS011;6091;51.432;6.880;2024-01-25T04:53:48;1.15;;;1.00;;
12059;SDS011;6091;51.432;6.880;2024-01-25T04:56:17;1.50;;;1.10;;
12059;SDS011;6091;51.432;6.880;2024-01-25T04:58:45;1.48;;;1.05;;
12059;SDS011;6091;51.432;6.880;2024-01-25T05:01:12;1.77;;;1.10;;
12059;SDS011;6091;51.432;6.880;2024-01-25T05:03:40;1.15;;;0.90;;
12059;SDS011;6091;51.432;6.880;2024-01-25T05:06:07;1.38;;;1.10;;
12059;SDS011;6091;51.432;6.880;2024-01-25T05:08:34;0.95;;;0.75;;
12059;SDS011;6091;51.432;6.880;2024-01-25T05:11:02;1.48;;;1.13;;
12059;SDS011;6091;51.432;6.880;2024-01-25T05:13:31;1.50;;;1.05;;
12059;SDS011;6091;51.432;6.880;2024-01-25T05:15:58;0.95;;;0.80;;
12059;SDS011;6091;51.432;6.880;2024-01-25T05:18:26;1.30;;;1.13;;
12059;SDS011;6091;51.432;6.880;2024-01-25T05:20:53;1.40;;;0.95;;
12059;SDS011;6091;51.432;6.880;2024-01-25T05:23:22;1.15;;;0.98;;
12059;SDS011;6091;51.432;6.880;2024-01-25T05:25:49;1.20;;;1.00;;
12059;SDS011;6091;51.432;6.880;2024-01-25T05:28:16;1.92;;;1.15;;
12059;SDS011;6091;51.432;6.880;2024-01-25T05:30:44;1.10;;;0.88;;
12059;SDS011;6091;51.432;6.880;2024-01-25T05:33:11;1.92;;;1.20;;
12059;SDS011;6091;51.432;6.880;2024-01-25T05:35:38;2.72;;;1.23;;
12059;SDS011;6091;51.432;6.880;2024-01-25T05:38:06;1.60;;;1.17;;
12059;SDS011;6091;51.432;6.880;2024-01-25T05:40:36;1.55;;;1.13;;
12059;SDS011;6091;51.432;6.880;2024-01-25T05:43:03;1.35;;;1.13;;
12059;SDS011;6091;51.432;6.880;2024-01-25T05:45:31;1.40;;;1.15;;
12059;SDS011;6091;51.432;6.880;2024-01-25T05:47:58;1.27;;;1.05;;
12059;SDS011;6091;51.432;6.880;2024-01-25T05:50:25;1.23;;;1.13;;
12059;SDS011;6091;51.432;6.880;2024-01-25T05:52:53;1.10;;;1.00;;
12059;SDS011;6091;51.432;6.880;2024-01-25T05:55:20;1.10;;;1.00;;
12059;SDS011;6091;51.432;6.880;2024-01-25T05:57:47;1.10;;;0.95;;
12059;SDS011;6091;51.432;6.880;2024-01-25T06:00:15;2.33;;;1.13;;
12059;SDS011;6091;51.432;6.880;2024-01-25T06:02:47;1.85;;;1.20;;
12059;SDS011;6091;51.432;6.880;2024-01-25T06:05:14;1.17;;;1.00;;
12059;SDS011;6091;51.432;6.880;2024-01-25T06:07:42;1.35;;;1.00;;
12059;SDS011;6091;51.432;6.880;2024-01-25T06:10:10;1.17;;;1.00;;
12059;SDS011;6091;51.432;6.880;2024-01-25T06:12:37;1.60;;;1.13;;
12059;SDS011;6091;51.432;6.880;2024-01-25T06:15:05;2.17;;;1.20;;
12059;SDS011;6091;51.432;6.880;2024-01-25T06:17:34;2.03;;;1.27;;
12059;SDS011;6091;51.432;6.880;2024-01-25T06:20:02;1.70;;;1.10;;
12059;SDS011;6091;51.432;6.880;2024-01-25T06:22:31;1.45;;;1.20;;
12059;SDS011;6091;51.432;6.880;2024-01-25T06:24:58;1.90;;;1.20;;
12059;SDS011;6091;51.432;6.880;2024-01-25T06:27:25;1.58;;;1.20;;
12059;SDS011;6091;51.432;6.880;2024-01-25T06:29:52;1.52;;;1.05;;
12059;SDS011;6091;51.432;6.880;2024-01-25T06:32:19;1.38;;;1.10;;
12059;SDS011;6091;51.432;6.880;2024-01-25T06:34:52;1.45;;;1.02;;
12059;SDS011;6091;51.432;6.880;2024-01-25T06:37:20;1.25;;;1.15;;
12059;SDS011;6091;51.432;6.880;2024-01-25T06:39:47;1.10;;;1.00;;
12059;SDS011;6091;51.432;6.880;2024-01-25T06:42:15;1.25;;;1.15;;
12059;SDS011;6091;51.432;6.880;2024-01-25T06:44:42;1.92;;;1.13;;
12059;SDS011;6091;51.432;6.880;2024-01-25T06:47:10;1.55;;;1.13;;
12059;SDS011;6091;51.432;6.880;2024-01-25T06:49:37;1.70;;;1.17;;
12059;SDS011;6091;51.432;6.880;2024-01-25T06:52:05;1.88;;;1.40;;
12059;SDS011;6091;51.432;6.880;2024-01-25T06:54:32;1.63;;;1.30;;
12059;SDS011;6091;51.432;6.880;2024-01-25T06:57:00;1.95;;;1.30;;
12059;SDS011;6091;51.432;6.880;2024-01-25T06:59:27;1.45;;;1.17;;
12059;SDS011;6091;51.432;6.880;2024-01-25T07:01:54;2.42;;;1.40;;
12059;SDS011;6091;51.432;6.880;2024-01-25T07:04:23;1.33;;;1.10;;
12059;SDS011;6091;51.432;6.880;2024-01-25T07:06:50;1.20;;;1.10;;
12059;SDS011;6091;51.432;6.880;2024-01-25T07:09:18;2.13;;;1.38;;
12059;SDS011;6091;51.432;6.880;2024-01-25T07:11:45;1.50;;;1.10;;
12059;SDS011;6091;51.432;6.880;2024-01-25T07:14:13;1.92;;;1.10;;
12059;SDS011;6091;51.432;6.880;2024-01-25T07:16:40;1.30;;;1.20;;
12059;SDS011;6091;51.432;6.880;2024-01-25T07:19:07;1.33;;;1.23;;
12059;SDS011;6091;51.432;6.880;2024-01-25T07:21:34;1.92;;;1.40;;
12059;SDS011;6091;51.432;6.880;2024-01-25T07:24:02;1.90;;;1.30;;
12059;SDS011;6091;51.432;6.880;2024-01-25T07:26:33;1.63;;;1.40;;
12059;SDS011;6091;51.432;6.880;2024-01-25T07:29:00;1.50;;;1.02;;
12059;SDS011;6091;51.432;6.880;2024-01-25T07:31:27;1.52;;;1.13;;
12059;SDS011;6091;51.432;6.880;2024-01-25T07:33:54;2.45;;;1.20;;
12059;SDS011;6091;51.432;6.880;2024-01-25T07:36:22;2.45;;;1.42;;
12059;SDS011;6091;51.432;6.880;2024-01-25T07:38:52;1.30;;;1.20;;
12059;SDS011;6091;51.432;6.880;2024-01-25T07:41:19;1.52;;;1.27;;
12059;SDS011;6091;51.432;6.880;2024-01-25T07:43:46;2.03;;;1.20;;
12059;SDS011;6091;51.432;6.880;2024-01-25T07:46:13;4.47;;;1.80;;
12059;SDS011;6091;51.432;6.880;2024-01-25T07:48:41;2.22;;;1.70;;
12059;SDS011;6091;51.432;6.880;2024-01-25T07:51:13;2.03;;;1.40;;
12059;SDS011;6091;51.432;6.880;2024-01-25T07:53:40;1.70;;;1.40;;
12059;SDS011;6091;51.432;6.880;2024-01-25T07:56:08;1.85;;;1.50;;
12059;SDS011;6091;51.432;6.880;2024-01-25T07:58:36;1.40;;;1.30;;
12059;SDS011;6091;51.432;6.880;2024-01-25T08:01:04;2.10;;;1.38;;
12059;SDS011;6091;51.432;6.880;2024-01-25T08:03:36;2.33;;;1.33;;
12059;SDS011;6091;51.432;6.880;2024-01-25T08:06:03;2.30;;;1.45;;
12059;SDS011;6091;51.432;6.880;2024-01-25T08:08:31;1.38;;;1.15;;
12059;SDS011;6091;51.432;6.880;2024-01-25T08:10:58;1.65;;;1.30;;
12059;SDS011;6091;51.432;6.880;2024-01-25T08:13:25;2.05;;;1.55;;
12059;SDS011;6091;51.432;6.880;2024-01-25T08:15:58;2.47;;;1.63;;
12059;SDS011;6091;51.432;6.880;2024-01-25T08:18:26;2.92;;;1.65;;
12059;SDS011;6091;51.432;6.880;2024-01-25T08:20:56;2.70;;;1.60;;
12059;SDS011;6091;51.432;6.880;2024-01-25T08:23:25;1.63;;;1.42;;
12059;SDS011;6091;51.432;6.880;2024-01-25T08:25:52;1.80;;;1.60;;
12059;SDS011;6091;51.432;6.880;2024-01-25T08:28:20;2.47;;;1.60;;
12059;SDS011;6091;51.432;6.880;2024-01-25T08:30:49;2.38;;;1.67;;
12059;SDS011;6091;51.432;6.880;2024-01-25T08:33:18;1.65;;;1.33;;
12059;SDS011;6091;51.432;6.880;2024-01-25T08:35:46;1.75;;;1.25;;
12059;SDS011;6091;51.432;6.880;2024-01-25T08:38:13;2.53;;;1.60;;
12059;SDS011;6091;51.432;6.880;2024-01-25T08:40:40;1.30;;;1.20;;
12059;SDS011;6091;51.432;6.880;2024-01-25T08:43:08;1.48;;;1.38;;
12059;SDS011;6091;51.432;6.880;2024-01-25T08:45:35;1.65;;;1.30;;
12059;SDS011;6091;51.432;6.880;2024-01-25T08:48:05;2.35;;;1.42;;
12059;SDS011;6091;51.432;6.880;2024-01-25T08:50:35;2.10;;;1.50;;
12059;SDS011;6091;51.432;6.880;2024-01-25T08:53:03;2.22;;;1.25;;
12059;SDS011;6091;51.432;6.880;2024-01-25T08:55:31;1.80;;;1.40;;
12059;SDS011;6091;51.432;6.880;2024-01-25T08:57:59;3.38;;;1.52;;
12059;SDS011;6091;51.432;6.880;2024-01-25T09:00:26;3.55;;;1.70;;
12059;SDS011;6091;51.432;6.880;2024-01-25T09:02:54;1.85;;;1.50;;
12059;SDS011;6091;51.432;6.880;2024-01-25T09:05:21;2.10;;;1.65;;
12059;SDS011;6091;51.432;6.880;2024-01-25T09:07:49;1.95;;;1.42;;
12059;SDS011;6091;51.432;6.880;2024-01-25T09:10:17;4.70;;;2.25;;
12059;SDS011;6091;51.432;6.880;2024-01-25T09:12:44;3.05;;;2.10;;
12059;SDS011;6091;51.432;6.880;2024-01-25T09:15:12;3.30;;;2.05;;
12059;SDS011;6091;51.432;6.880;2024-01-25T09:17:39;3.80;;;2.22;;
12059;SDS011;6091;51.432;6.880;2024-01-25T09:20:07;8.90;;;2.63;;
12059;SDS011;6091;51.432;6.880;2024-01-25T09:22:36;4.45;;;2.78;;
12059;SDS011;6091;51.432;6.880;2024-01-25T09:25:04;5.63;;;2.70;;
12059;SDS011;6091;51.432;6.880;2024-01-25T09:27:35;7.55;;;2.30;;
12059;SDS011;6091;51.432;6.880;2024-01-25T09:30:05;4.43;;;2.10;;
12059;SDS011;6091;51.432;6.880;2024-01-25T09:32:34;4.47;;;2.22;;
12059;SDS011;6091;51.432;6.880;2024-01-25T09:35:02;6.80;;;3.33;;
12059;SDS011;6091;51.432;6.880;2024-01-25T09:37:32;4.30;;;2.58;;
12059;SDS011;6091;51.432;6.880;2024-01-25T09:40:00;6.05;;;3.00;;
12059;SDS011;6091;51.432;6.880;2024-01-25T09:42:27;3.83;;;2.72;;
12059;SDS011;6091;51.432;6.880;2024-01-25T09:44:55;7.40;;;2.38;;
12059;SDS011;6091;51.432;6.880;2024-01-25T09:47:22;4.05;;;2.47;;
12059;SDS011;6091;51.432;6.880;2024-01-25T09:49:50;4.50;;;2.42;;
12059;SDS011;6091;51.432;6.880;2024-01-25T09:52:18;4.90;;;2.80;;
12059;SDS011;6091;51.432;6.880;2024-01-25T09:54:53;5.05;;;2.42;;
12059;SDS011;6091;51.432;6.880;2024-01-25T09:57:22;4.70;;;2.60;;
12059;SDS011;6091;51.432;6.880;2024-01-25T09:59:54;3.95;;;2.53;;
12059;SDS011;6091;51.432;6.880;2024-01-25T10:02:22;3.60;;;2.65;;
12059;SDS011;6091;51.432;6.880;2024-01-25T10:04:49;2.83;;;2.05;;
12059;SDS011;6091;51.432;6.880;2024-01-25T10:10:08;4.28;;;2.50;;
12059;SDS011;6091;51.432;6.880;2024-01-25T10:12:39;4.32;;;2.40;;
12059;SDS011;6091;51.432;6.880;2024-01-25T10:15:09;5.18;;;2.10;;
12059;SDS011;6091;51.432;6.880;2024-01-25T10:17:38;6.65;;;2.33;;
12059;SDS011;6091;51.432;6.880;2024-01-25T10:20:26;7.05;;;2.35;;
12059;SDS011;6091;51.432;6.880;2024-01-25T10:22:57;4.05;;;2.58;;
12059;SDS011;6091;51.432;6.880;2024-01-25T10:25:27;3.75;;;2.50;;
12059;SDS011;6091;51.432;6.880;2024-01-25T10:27:54;5.80;;;2.33;;
12059;SDS011;6091;51.432;6.880;2024-01-25T10:30:22;3.58;;;1.90;;
12059;SDS011;6091;51.432;6.880;2024-01-25T10:32:51;4.90;;;2.83;;
12059;SDS011;6091;51.432;6.880;2024-01-25T10:35:20;4.38;;;2.30;;
12059;SDS011;6091;51.432;6.880;2024-01-25T10:37:50;6.18;;;2.60;;
12059;SDS011;6091;51.432;6.880;2024-01-25T10:40:20;4.78;;;2.38;;
12059;SDS011;6091;51.432;6.880;2024-01-25T10:42:49;7.40;;;4.57;;
12059;SDS011;6091;51.432;6.880;2024-01-25T10:45:18;10.20;;;5.65;;
12059;SDS011;6091;51.432;6.880;2024-01-25T10:47:48;10.68;;;5.45;;
12059;SDS011;6091;51.432;6.880;2024-01-25T10:50:16;10.05;;;5.07;;
12059;SDS011;6091;51.432;6.880;2024-01-25T10:52:43;8.13;;;4.85;;
12059;SDS011;6091;51.432;6.880;2024-01-25T10:55:12;7.95;;;4.13;;
12059;SDS011;6091;51.432;6.880;2024-01-25T10:57:42;6.55;;;4.25;;
12059;SDS011;6091;51.432;6.880;2024-01-25T11:00:12;6.00;;;3.92;;
12059;SDS011;6091;51.432;6.880;2024-01-25T11:02:42;6.70;;;3.63;;
12059;SDS011;6091;51.432;6.880;2024-01-25T11:05:14;5.45;;;4.13;;
12059;SDS011;6091;51.432;6.880;2024-01-25T11:07:46;4.82;;;3.50;;
12059;SDS011;6091;51.432;6.880;2024-01-25T11:10:19;7.63;;;3.72;;
12059;SDS011;6091;51.432;6.880;2024-01-25T11:15:34;6.00;;;3.80;;
12059;SDS011;6091;51.432;6.880;2024-01-25T11:18:03;6.13;;;3.50;;
12059;SDS011;6091;51.432;6.880;2024-01-25T11:20:35;6.28;;;3.30;;
12059;SDS011;6091;51.432;6.880;2024-01-25T11:23:04;5.88;;;3.40;;
12059;SDS011;6091;51.432;6.880;2024-01-25T11:25:36;5.07;;;3.53;;
12059;SDS011;6091;51.432;6.880;2024-01-25T11:28:04;6.45;;;3.80;;
12059;SDS011;6091;51.432;6.880;2024-01-25T11:30:33;5.72;;;4.00;;
12059;SDS011;6091;51.432;6.880;2024-01-25T11:33:09;4.82;;;3.25;;
12059;SDS011;6091;51.432;6.880;2024-01-25T11:35:39;4.45;;;3.28;;
12059;SDS011;6091;51.432;6.880;2024-01-25T11:38:09;4.75;;;3.30;;
12059;SDS011;6091;51.432;6.880;2024-01-25T11:40:36;5.28;;;3.80;;
12059;SDS011;6091;51.432;6.880;2024-01-25T11:43:04;4.90;;;3.20;;
12059;SDS011;6091;51.432;6.880;2024-01-25T11:45:38;4.30;;;3.05;;
12059;SDS011;6091;51.432;6.880;2024-01-25T11:48:10;3.53;;;3.10;;
12059;SDS011;6091;51.432;6.880;2024-01-25T11:50:38;4.88;;;3.00;;
12059;SDS011;6091;51.432;6.880;2024-01-25T11:53:06;4.72;;;2.90;;
12059;SDS011;6091;51.432;6.880;2024-01-25T11:55:33;5.50;;;3.47;;
12059;SDS011;6091;51.432;6.880;2024-01-25T11:58:00;3.72;;;3.03;;
12059;SDS011;6091;51.432;6.880;2024-01-25T12:00:28;4.95;;;3.10;;
12059;SDS011;6091;51.432;6.880;2024-01-25T12:02:56;4.50;;;2.80;;
12059;SDS011;6091;51.432;6.880;2024-01-25T12:05:23;5.07;;;3.10;;
12059;SDS011;6091;51.432;6.880;2024-01-25T12:07:51;2.92;;;2.60;;
12059;SDS011;6091;51.432;6.880;2024-01-25T12:10:18;4.97;;;2.90;;
12059;SDS011;6091;51.432;6.880;2024-01-25T12:12:46;3.83;;;3.08;;
12059;SDS011;6091;51.432;6.880;2024-01-25T12:15:15;3.47;;;2.47;;
12059;SDS011;6091;51.432;6.880;2024-01-25T12:17:42;3.70;;;2.80;;
12059;SDS011;6091;51.432;6.880;2024-01-25T12:20:09;3.58;;;2.97;;
12059;SDS011;6091;51.432;6.880;2024-01-25T12:22:38;4.03;;;2.90;;
12059;SDS011;6091;51.432;6.880;2024-01-25T12:25:07;4.88;;;2.45;;
12059;SDS011;6091;51.432;6.880;2024-01-25T12:27:40;3.65;;;2.70;;
12059;SDS011;6091;51.432;6.880;2024-01-25T12:30:08;4.85;;;2.92;;
12059;SDS011;6091;51.432;6.880;2024-01-25T12:32:37;3.08;;;2.63;;
12059;SDS011;6091;51.432;6.880;2024-01-25T12:35:05;3.05;;;2.60;;
12059;SDS011;6091;51.432;6.880;2024-01-25T12:37:34;4.50;;;3.08;;
12059;SDS011;6091;51.432;6.880;2024-01-25T12:40:02;3.58;;;2.50;;
12059;SDS011;6091;51.432;6.880;2024-01-25T12:42:30;3.15;;;2.60;;
12059;SDS011;6091;51.432;6.880;2024-01-25T12:44:57;3.40;;;2.70;;
12059;SDS011;6091;51.432;6.880;2024-01-25T12:47:24;3.13;;;2.38;;
12059;SDS011;6091;51.432;6.880;2024-01-25T12:49:53;3.00;;;2.67;;
12059;SDS011;6091;51.432;6.880;2024-01-25T12:52:21;3.85;;;2.92;;
12059;SDS011;6091;51.432;6.880;2024-01-25T12:54:48;3.05;;;2.20;;
12059;SDS011;6091;51.432;6.880;2024-01-25T12:57:17;3.67;;;2.40;;
12059;SDS011;6091;51.432;6.880;2024-01-25T12:59:45;2.85;;;2.53;;
12059;SDS011;6091;51.432;6.880;2024-01-25T13:02:13;3.47;;;2.42;;
12059;SDS011;6091;51.432;6.880;2024-01-25T13:04:41;3.47;;;2.58;;
12059;SDS011;6091;51.432;6.880;2024-01-25T13:07:08;3.00;;;2.38;;
12059;SDS011;6091;51.432;6.880;2024-01-25T13:09:35;3.55;;;2.60;;
12059;SDS011;6091;51.432;6.880;2024-01-25T13:12:04;2.67;;;2.30;;
12059;SDS011;6091;51.432;6.880;2024-01-25T13:14:31;3.60;;;2.50;;
12059;SDS011;6091;51.432;6.880;2024-01-25T13:16:59;2.13;;;1.83;;
12059;SDS011;6091;51.432;6.880;2024-01-25T13:19:27;3.17;;;2.50;;
12059;SDS011;6091;51.432;6.880;2024-01-25T13:21:54;2.03;;;1.83;;
12059;SDS011;6091;51.432;6.880;2024-01-25T13:24:21;2.55;;;2.35;;
12059;SDS011;6091;51.432;6.880;2024-01-25T13:26:49;2.92;;;2.25;;
12059;SDS011;6091;51.432;6.880;2024-01-25T13:29:16;2.22;;;1.90;;
12059;SDS011;6091;51.432;6.880;2024-01-25T13:31:44;3.13;;;2.30;;
12059;SDS011;6091;51.432;6.880;2024-01-25T13:34:11;2.53;;;2.33;;
12059;SDS011;6091;51.432;6.880;2024-01-25T13:36:39;2.25;;;2.05;;
12059;SDS011;6091;51.432;6.880;2024-01-25T13:39:06;3.33;;;2.58;;
12059;SDS011;6091;51.432;6.880;2024-01-25T13:41:35;4.50;;;2.67;;
12059;SDS011;6091;51.432;6.880;2024-01-25T13:44:02;2.67;;;2.20;;
12059;SDS011;6091;51.432;6.880;2024-01-25T13:46:30;3.47;;;2.55;;
12059;SDS011;6091;51.432;6.880;2024-01-25T13:48:58;2.60;;;2.20;;
12059;SDS011;6091;51.432;6.880;2024-01-25T13:51:25;3.20;;;2.28;;
12059;SDS011;6091;51.432;6.880;2024-01-25T13:53:52;3.45;;;2.40;;
12059;SDS011;6091;51.432;6.880;2024-01-25T13:56:21;2.88;;;2.10;;
12059;SDS011;6091;51.432;6.880;2024-01-25T13:58:48;3.50;;;2.28;;
12059;SDS011;6091;51.432;6.880;2024-01-25T14:01:17;2.83;;;2.13;;
12059;SDS011;6091;51.432;6.880;2024-01-25T14:03:44;3.25;;;2.60;;
12059;SDS011;6091;51.432;6.880;2024-01-25T14:06:12;2.83;;;2.20;;
12059;SDS011;6091;51.432;6.880;2024-01-25T14:08:40;2.33;;;2.08;;
12059;SDS011;6091;51.432;6.880;2024-01-25T14:11:09;2.53;;;1.95;;
12059;SDS011;6091;51.432;6.880;2024-01-25T14:13:37;2.80;;;2.08;;
12059;SDS011;6091;51.432;6.880;2024-01-25T14:16:06;2.25;;;1.63;;
12059;SDS011;6091;51.432;6.880;2024-01-25T14:18:37;2.83;;;2.08;;
12059;SDS011;6091;51.432;6.880;2024-01-25T14:21:07;2.60;;;2.20;;
12059;SDS011;6091;51.432;6.880;2024-01-25T14:23:34;3.85;;;2.10;;
12059;SDS011;6091;51.432;6.880;2024-01-25T14:26:02;2.42;;;1.92;;
12059;SDS011;6091;51.432;6.880;2024-01-25T14:28:29;2.95;;;1.85;;
12059;SDS011;6091;51.432;6.880;2024-01-25T14:30:57;3.47;;;2.03;;
12059;SDS011;6091;51.432;6.880;2024-01-25T14:33:26;2.58;;;2.22;;
12059;SDS011;6091;51.432;6.880;2024-01-25T14:35:53;4.07;;;2.33;;
12059;SDS011;6091;51.432;6.880;2024-01-25T14:38:20;2.17;;;1.90;;
12059;SDS011;6091;51.432;6.880;2024-01-25T14:40:47;2.10;;;1.85;;
12059;SDS011;6091;51.432;6.880;2024-01-25T14:43:24;2.20;;;2.00;;
12059;SDS011;6091;51.432;6.880;2024-01-25T14:45:52;3.15;;;2.13;;
12059;SDS011;6091;51.432;6.880;2024-01-25T14:48:19;3.38;;;2.17;;
12059;SDS011;6091;51.432;6.880;2024-01-25T14:50:47;2.22;;;1.90;;
12059;SDS011;6091;51.432;6.880;2024-01-25T14:53:14;2.33;;;1.70;;
12059;SDS011;6091;51.432;6.880;2024-01-25T14:55:44;2.15;;;1.90;;
12059;SDS011;6091;51.432;6.880;2024-01-25T14:58:13;2.90;;;1.98;;
12059;SDS011;6091;51.432;6.880;2024-01-25T15:00:44;2.78;;;2.03;;
12059;SDS011;6091;51.432;6.880;2024-01-25T15:03:11;2.63;;;2.00;;
12059;SDS011;6091;51.432;6.880;2024-01-25T15:05:39;2.47;;;1.95;;
12059;SDS011;6091;51.432;6.880;2024-01-25T15:08:07;2.10;;;1.77;;
12059;SDS011;6091;51.432;6.880;2024-01-25T15:10:35;2.03;;;1.90;;